createdAt,value
2018-09-26T00:00:33.069Z,8.72
2018-09-26T00:03:13.703Z,8.73
2018-09-26T00:05:48.017Z,8.70
2018-09-26T00:08:21.802Z,8.69
2018-09-26T00:10:55.404Z,8.69
2018-09-26T00:13:29.028Z,8.66
2018-09-26T00:16:02.646Z,8.64
2018-09-26T00:18:36.295Z,8.66
2018-09-26T00:21:10.005Z,8.64
2018-09-26T00:23:43.618Z,8.67
2018-09-26T00:26:17.223Z,8.68
2018-09-26T00:28:50.889Z,8.68
2018-09-26T00:31:24.617Z,8.68
2018-09-26T00:33:58.252Z,8.71
2018-09-26T00:36:31.896Z,8.72
2018-09-26T00:39:07.330Z,8.72
2018-09-26T00:41:40.923Z,8.72
2018-09-26T00:44:14.510Z,8.74
2018-09-26T00:46:48.146Z,8.75
2018-09-26T00:49:21.802Z,8.75
2018-09-26T00:51:55.396Z,8.76
2018-09-26T00:54:29.073Z,8.75
2018-09-26T00:57:02.791Z,8.80
2018-09-26T00:59:36.680Z,8.83
2018-09-26T01:02:10.382Z,8.84
2018-09-26T01:04:44.007Z,8.86
2018-09-26T01:07:17.625Z,8.87
2018-09-26T01:09:51.474Z,8.90
2018-09-26T01:12:25.096Z,8.91
2018-09-26T01:14:58.767Z,8.94
2018-09-26T01:17:32.402Z,8.94
2018-09-26T01:20:06.172Z,8.95
2018-09-26T01:22:39.765Z,8.95
2018-09-26T01:25:13.542Z,8.97
2018-09-26T01:27:47.257Z,9.00
2018-09-26T01:30:20.871Z,9.01
2018-09-26T01:32:54.666Z,9.01
2018-09-26T01:35:28.381Z,9.02
2018-09-26T01:38:02.125Z,9.05
2018-09-26T01:40:35.782Z,9.08
2018-09-26T01:43:09.424Z,9.03
2018-09-26T01:45:43.085Z,9.04
2018-09-26T01:48:16.684Z,9.06
2018-09-26T01:50:50.262Z,9.14
2018-09-26T01:53:23.975Z,9.20
2018-09-26T01:55:57.600Z,9.17
2018-09-26T01:58:31.180Z,9.23
2018-09-26T02:01:04.903Z,9.29
2018-09-26T02:03:38.467Z,9.34
2018-09-26T02:06:12.062Z,9.38
2018-09-26T02:08:45.607Z,9.37
2018-09-26T02:11:19.243Z,9.38
2018-09-26T02:13:52.815Z,9.40
2018-09-26T02:16:26.441Z,9.41
2018-09-26T02:18:59.967Z,9.42
2018-09-26T02:21:33.699Z,9.41
2018-09-26T02:24:07.356Z,9.37
2018-09-26T02:26:40.956Z,9.38
2018-09-26T02:29:14.525Z,9.34
2018-09-26T02:31:48.109Z,9.29
2018-09-26T02:34:21.685Z,9.25
2018-09-26T02:36:55.271Z,9.25
2018-09-26T02:39:28.837Z,9.21
2018-09-26T02:42:02.487Z,9.18
2018-09-26T02:44:36.077Z,9.18
2018-09-26T02:47:09.682Z,9.16
2018-09-26T02:49:43.386Z,9.14
2018-09-26T02:52:16.955Z,9.08
2018-09-26T02:54:50.526Z,9.08
2018-09-26T02:57:24.091Z,9.07
2018-09-26T02:59:57.669Z,9.04
2018-09-26T03:02:31.243Z,8.99
2018-09-26T03:05:05.213Z,8.95
2018-09-26T03:07:38.863Z,8.93
2018-09-26T03:10:12.482Z,8.90
2018-09-26T03:12:46.071Z,8.88
2018-09-26T03:15:19.682Z,8.83
2018-09-26T03:17:53.601Z,8.79
2018-09-26T03:20:27.198Z,8.77
2018-09-26T03:23:00.813Z,8.76
2018-09-26T03:25:34.427Z,8.72
2018-09-26T03:28:08.059Z,8.70
2018-09-26T03:30:41.730Z,8.69
2018-09-26T03:33:15.474Z,8.66
2018-09-26T03:35:49.092Z,8.69
2018-09-26T03:38:22.705Z,8.69
2018-09-26T03:40:56.293Z,8.70
2018-09-26T03:43:29.962Z,8.73
2018-09-26T03:46:03.592Z,8.73
2018-09-26T03:48:37.192Z,8.68
2018-09-26T03:51:10.786Z,8.68
2018-09-26T03:53:44.392Z,8.68
2018-09-26T03:56:18.152Z,8.72
2018-09-26T03:58:51.759Z,8.74
2018-09-26T04:01:25.412Z,8.74
2018-09-26T04:03:58.984Z,8.74
2018-09-26T04:06:32.571Z,8.73
2018-09-26T04:09:07.864Z,8.72
2018-09-26T04:11:41.632Z,8.71
2018-09-26T04:14:15.206Z,8.74
2018-09-26T04:16:48.887Z,8.76
2018-09-26T04:19:22.503Z,8.76
2018-09-26T04:21:56.158Z,8.75
2018-09-26T04:24:29.896Z,8.71
2018-09-26T04:27:03.797Z,8.66
2018-09-26T04:29:37.154Z,8.64
2018-09-26T04:32:10.819Z,8.67
2018-09-26T04:34:44.415Z,8.70
2018-09-26T04:37:18.036Z,8.70
2018-09-26T04:39:51.739Z,8.77
2018-09-26T04:42:25.329Z,8.76
2018-09-26T04:44:58.903Z,8.75
2018-09-26T04:47:32.567Z,8.78
2018-09-26T04:50:06.377Z,8.77
2018-09-26T04:52:40.095Z,8.80
2018-09-26T04:55:13.710Z,8.79
2018-09-26T04:57:47.475Z,8.82
2018-09-26T05:00:21.136Z,8.88
2018-09-26T05:02:54.745Z,8.89
2018-09-26T05:05:28.401Z,8.93
2018-09-26T05:08:02.781Z,8.91
2018-09-26T05:10:36.922Z,8.91
2018-09-26T05:13:10.574Z,8.91
2018-09-26T05:15:44.208Z,8.93
2018-09-26T05:18:17.805Z,8.95
2018-09-26T05:20:51.372Z,8.91
2018-09-26T05:23:24.956Z,8.97
2018-09-26T05:25:58.660Z,8.95
2018-09-26T05:28:32.301Z,8.99
2018-09-26T05:31:05.870Z,9.00
2018-09-26T05:33:39.461Z,9.05
2018-09-26T05:36:13.045Z,9.11
2018-09-26T05:38:46.718Z,9.18
2018-09-26T05:41:20.311Z,9.22
2018-09-26T05:43:53.972Z,9.25
2018-09-26T05:46:27.552Z,9.22
2018-09-26T05:49:01.126Z,9.19
2018-09-26T05:51:34.748Z,9.32
2018-09-26T05:54:08.586Z,9.39
2018-09-26T05:56:42.270Z,9.48
2018-09-26T05:59:15.888Z,9.46
2018-09-26T06:01:49.450Z,9.44
2018-09-26T06:04:23.071Z,9.48
2018-09-26T06:06:56.724Z,9.58
2018-09-26T06:09:30.318Z,9.64
2018-09-26T06:12:04.040Z,9.73
2018-09-26T06:14:37.601Z,9.78
2018-09-26T06:17:11.189Z,9.84
2018-09-26T06:19:45.088Z,9.82
2018-09-26T06:22:18.805Z,9.87
2018-09-26T06:24:52.391Z,9.87
2018-09-26T06:27:25.993Z,9.90
2018-09-26T06:30:00.750Z,9.98
2018-09-26T06:32:34.354Z,10.03
2018-09-26T06:35:08.387Z,10.12
2018-09-26T06:37:41.928Z,10.18
2018-09-26T06:40:15.608Z,10.26
2018-09-26T06:42:49.197Z,10.32
2018-09-26T06:45:22.845Z,10.42
2018-09-26T06:47:56.463Z,10.53
2018-09-26T06:50:30.027Z,10.65
2018-09-26T06:53:03.737Z,10.71
2018-09-26T06:55:37.366Z,10.89
2018-09-26T06:58:10.939Z,11.06
2018-09-26T07:00:44.540Z,11.19
2018-09-26T07:03:18.422Z,11.36
2018-09-26T07:05:51.999Z,11.56
2018-09-26T07:08:25.559Z,11.82
2018-09-26T07:10:59.158Z,12.01
2018-09-26T07:13:32.786Z,12.09
2018-09-26T07:16:06.405Z,12.16
2018-09-26T07:18:40.011Z,12.14
2018-09-26T07:21:13.729Z,12.20
2018-09-26T07:23:47.381Z,12.27
2018-09-26T07:26:21.059Z,12.23
2018-09-26T07:28:54.823Z,12.20
2018-09-26T07:31:28.443Z,12.38
2018-09-26T07:34:02.046Z,12.40
2018-09-26T07:36:35.692Z,12.48
2018-09-26T07:39:11.138Z,12.51
2018-09-26T07:41:44.722Z,12.58
2018-09-26T07:44:18.327Z,12.54
2018-09-26T07:46:51.911Z,12.58
2018-09-26T07:49:25.832Z,12.72
2018-09-26T07:51:59.485Z,12.77
2018-09-26T07:54:33.110Z,12.90
2018-09-26T07:57:06.874Z,12.98
2018-09-26T07:59:40.484Z,13.05
2018-09-26T08:02:14.104Z,13.24
2018-09-26T08:04:47.830Z,13.51
2018-09-26T08:07:21.424Z,13.68
2018-09-26T08:09:55.037Z,13.59
2018-09-26T08:12:28.671Z,13.76
2018-09-26T08:15:02.348Z,13.96
2018-09-26T08:17:36.172Z,14.14
2018-09-26T08:20:09.806Z,14.22
2018-09-26T08:22:43.415Z,14.41
2018-09-26T08:25:17.040Z,14.33
2018-09-26T08:27:50.651Z,14.12
2018-09-26T08:30:24.248Z,14.15
2018-09-26T08:32:57.876Z,14.14
2018-09-26T08:35:31.494Z,14.20
2018-09-26T08:38:05.084Z,14.44
2018-09-26T08:40:38.681Z,14.58
2018-09-26T08:43:12.252Z,14.71
2018-09-26T08:45:45.859Z,14.93
2018-09-26T08:48:19.488Z,14.99
2018-09-26T08:50:53.106Z,15.12
2018-09-26T08:53:26.710Z,15.19
2018-09-26T08:56:00.338Z,15.19
2018-09-26T08:58:33.961Z,15.10
2018-09-26T09:01:13.195Z,15.08
2018-09-26T09:03:46.817Z,15.10
2018-09-26T09:06:20.550Z,14.98
2018-09-26T09:08:54.227Z,14.89
2018-09-26T09:11:27.910Z,15.05
2018-09-26T09:14:01.616Z,15.30
2018-09-26T09:16:35.395Z,15.63
2018-09-26T09:19:09.095Z,16.26
2018-09-26T09:21:42.658Z,16.54
2018-09-26T09:24:16.255Z,16.46
2018-09-26T09:26:49.852Z,16.40
2018-09-26T09:29:23.462Z,16.49
2018-09-26T09:31:57.047Z,16.59
2018-09-26T09:34:30.656Z,16.65
2018-09-26T09:37:04.292Z,16.79
2018-09-26T09:39:37.900Z,16.77
2018-09-26T09:42:11.477Z,16.85
2018-09-26T09:44:45.187Z,16.77
2018-09-26T09:47:18.748Z,16.58
2018-09-26T09:49:52.403Z,16.82
2018-09-26T09:52:25.984Z,16.86
2018-09-26T09:54:59.844Z,17.27
2018-09-26T09:57:33.416Z,17.95
2018-09-26T10:00:07.121Z,18.12
2018-09-26T10:02:40.848Z,18.10
2018-09-26T10:05:14.501Z,17.86
2018-09-26T10:07:48.074Z,17.77
2018-09-26T10:10:21.684Z,17.73
2018-09-26T10:12:55.300Z,17.67
2018-09-26T10:15:28.986Z,17.59
2018-09-26T10:18:02.704Z,17.62
2018-09-26T10:20:36.554Z,17.73
2018-09-26T10:23:11.025Z,17.93
2018-09-26T10:25:44.852Z,17.72
2018-09-26T10:28:19.078Z,17.65
2018-09-26T10:30:53.210Z,17.64
2018-09-26T10:33:27.604Z,17.68
2018-09-26T10:36:02.646Z,17.81
2018-09-26T10:38:36.288Z,17.93
2018-09-26T10:41:09.896Z,17.97
2018-09-26T10:43:43.470Z,17.92
2018-09-26T10:46:17.040Z,17.92
2018-09-26T10:48:50.591Z,18.05
2018-09-26T10:51:24.297Z,18.22
2018-09-26T10:53:57.841Z,18.17
2018-09-26T10:56:31.507Z,18.16
2018-09-26T10:59:05.273Z,18.20
2018-09-26T11:01:39.027Z,18.39
2018-09-26T11:04:12.660Z,18.47
2018-09-26T11:06:46.220Z,18.47
2018-09-26T11:09:19.789Z,18.27
2018-09-26T11:11:53.707Z,18.40
2018-09-26T11:14:27.258Z,18.23
2018-09-26T11:17:00.857Z,18.29
2018-09-26T11:19:35.380Z,18.31
2018-09-26T11:22:09.037Z,18.25
2018-09-26T11:24:42.592Z,18.02
2018-09-26T11:27:16.218Z,18.16
2018-09-26T11:29:49.956Z,18.24
2018-09-26T11:32:23.591Z,18.26
2018-09-26T11:34:57.173Z,18.26
2018-09-26T11:37:30.865Z,18.37
2018-09-26T11:40:04.550Z,18.59
2018-09-26T11:42:38.168Z,18.86
2018-09-26T11:45:12.811Z,19.18
2018-09-26T11:47:46.417Z,19.36
2018-09-26T11:50:20.028Z,19.44
2018-09-26T11:52:53.803Z,19.31
2018-09-26T11:55:27.476Z,19.70
2018-09-26T11:58:01.234Z,19.72
2018-09-26T12:00:35.020Z,19.37
2018-09-26T12:03:08.756Z,19.31
2018-09-26T12:05:42.322Z,19.40
2018-09-26T12:08:15.944Z,20.23
2018-09-26T12:10:49.565Z,21.08
2018-09-26T12:13:23.150Z,20.80
2018-09-26T12:15:56.841Z,20.40
2018-09-26T12:18:30.425Z,20.13
2018-09-26T12:21:04.026Z,20.26
2018-09-26T12:23:37.612Z,20.20
2018-09-26T12:26:11.757Z,19.81
2018-09-26T12:28:45.334Z,19.68
2018-09-26T12:31:18.923Z,19.60
2018-09-26T12:33:52.609Z,19.41
2018-09-26T12:36:26.310Z,19.31
2018-09-26T12:38:59.943Z,19.25
2018-09-26T12:41:33.787Z,19.38
2018-09-26T12:44:07.430Z,19.24
2018-09-26T12:46:41.031Z,19.11
2018-09-26T12:49:17.673Z,19.03
2018-09-26T12:51:51.477Z,19.10
2018-09-26T12:54:25.332Z,19.12
2018-09-26T12:56:59.379Z,19.23
2018-09-26T12:59:33.222Z,19.24
2018-09-26T13:02:06.877Z,19.18
2018-09-26T13:04:40.537Z,19.11
2018-09-26T13:07:14.123Z,19.00
2018-09-26T13:09:47.752Z,18.95
2018-09-26T13:12:21.392Z,19.03
2018-09-26T13:14:54.969Z,19.10
2018-09-26T13:17:28.610Z,18.95
2018-09-26T13:20:02.226Z,18.91
2018-09-26T13:22:35.955Z,18.85
2018-09-26T13:25:09.617Z,18.89
2018-09-26T13:27:43.301Z,19.00
2018-09-26T13:30:16.933Z,19.04
2018-09-26T13:32:50.498Z,18.90
2018-09-26T13:35:24.183Z,18.96
2018-09-26T13:38:04.339Z,18.73
2018-09-26T13:40:38.180Z,18.79
2018-09-26T13:43:11.791Z,18.86
2018-09-26T13:45:45.424Z,18.89
2018-09-26T13:48:19.132Z,18.91
2018-09-26T13:50:52.773Z,18.69
2018-09-26T13:53:26.380Z,18.55
2018-09-26T13:55:59.993Z,18.56
2018-09-26T13:58:33.638Z,18.50
2018-09-26T14:01:07.404Z,18.54
2018-09-26T14:03:41.550Z,18.54
2018-09-26T14:06:15.566Z,18.59
2018-09-26T14:08:49.319Z,18.79
2018-09-26T14:11:22.925Z,18.92
2018-09-26T14:13:56.539Z,18.91
2018-09-26T14:16:30.167Z,18.90
2018-09-26T14:19:03.757Z,18.92
2018-09-26T14:21:39.099Z,18.85
2018-09-26T14:24:13.109Z,18.90
2018-09-26T14:26:46.988Z,18.97
2018-09-26T14:29:20.887Z,18.98
2018-09-26T14:31:54.740Z,18.91
2018-09-26T14:34:28.608Z,18.96
2018-09-26T14:37:04.461Z,18.80
2018-09-26T14:39:38.457Z,18.89
2018-09-26T14:42:12.320Z,18.98
2018-09-26T14:44:47.198Z,19.05
2018-09-26T14:47:21.143Z,19.04
2018-09-26T14:49:55.166Z,19.11
2018-09-26T14:52:29.548Z,19.21
2018-09-26T14:55:03.566Z,19.08
2018-09-26T14:57:37.727Z,19.23
2018-09-26T15:00:11.933Z,19.27
2018-09-26T15:02:45.933Z,19.38
2018-09-26T15:05:20.850Z,19.33
2018-09-26T15:07:54.870Z,19.33
2018-09-26T15:10:28.923Z,19.28
2018-09-26T15:13:02.840Z,19.29
2018-09-26T15:15:37.407Z,19.29
2018-09-26T15:18:11.447Z,19.23
2018-09-26T15:20:45.497Z,19.27
2018-09-26T15:23:19.400Z,19.29
2018-09-26T15:25:53.839Z,19.24
2018-09-26T15:28:28.282Z,19.20
2018-09-26T15:31:02.214Z,19.23
2018-09-26T15:33:36.275Z,19.20
2018-09-26T15:36:10.251Z,19.18
2018-09-26T15:38:44.194Z,19.08
2018-09-26T15:41:18.139Z,19.01
2018-09-26T15:43:52.168Z,19.01
2018-09-26T15:46:27.447Z,19.03
2018-09-26T15:49:01.512Z,18.91
2018-09-26T15:51:38.815Z,18.87
2018-09-26T15:54:12.780Z,18.78
2018-09-26T15:56:46.640Z,18.63
2018-09-26T15:59:20.874Z,18.69
2018-09-26T16:01:54.746Z,18.72
2018-09-26T16:04:28.414Z,18.63
2018-09-26T16:07:02.063Z,18.57
2018-09-26T16:09:35.793Z,18.50
2018-09-26T16:12:09.522Z,18.45
2018-09-26T16:14:45.938Z,18.56
2018-09-26T16:17:19.760Z,18.47
2018-09-26T16:19:53.563Z,18.38
2018-09-26T16:22:27.338Z,18.37
2018-09-26T16:25:01.089Z,18.25
2018-09-26T16:27:34.720Z,18.29
2018-09-26T16:30:10.855Z,18.38
2018-09-26T16:32:44.578Z,18.34
2018-09-26T16:35:18.196Z,18.25
2018-09-26T16:37:51.764Z,18.32
2018-09-26T16:40:25.451Z,18.20
2018-09-26T16:42:59.402Z,18.30
2018-09-26T16:45:33.099Z,18.19
2018-09-26T16:48:06.908Z,18.21
2018-09-26T16:50:40.638Z,18.24
2018-09-26T16:53:15.269Z,18.26
2018-09-26T16:55:52.131Z,18.16
2018-09-26T16:58:27.259Z,18.17
2018-09-26T17:01:01.104Z,18.20
2018-09-26T17:03:34.898Z,18.19
2018-09-26T17:06:08.693Z,18.15
2018-09-26T17:08:42.405Z,18.14
2018-09-26T17:11:17.346Z,18.09
2018-09-26T17:13:51.147Z,18.13
2018-09-26T17:16:27.944Z,18.10
2018-09-26T17:19:01.918Z,18.06
2018-09-26T17:21:36.615Z,18.03
2018-09-26T17:24:11.043Z,17.99
2018-09-26T17:26:46.577Z,18.00
2018-09-26T17:29:22.508Z,17.90
2018-09-26T17:31:56.192Z,17.94
2018-09-26T17:34:31.720Z,17.95
2018-09-26T17:37:05.995Z,17.90
2018-09-26T17:39:39.764Z,17.86
2018-09-26T17:42:13.538Z,17.82
2018-09-26T17:44:47.439Z,17.80
2018-09-26T17:47:21.148Z,17.76
2018-09-26T17:49:55.899Z,17.70
2018-09-26T17:52:31.559Z,17.74
2018-09-26T17:55:05.461Z,17.75
2018-09-26T17:57:39.342Z,17.76
2018-09-26T18:00:13.047Z,17.75
2018-09-26T18:02:46.676Z,17.80
2018-09-26T18:05:20.394Z,17.79
2018-09-26T18:07:54.044Z,17.71
2018-09-26T18:10:27.689Z,17.70
2018-09-26T18:13:01.370Z,17.77
2018-09-26T18:15:34.967Z,17.75
2018-09-26T18:18:08.711Z,17.74
2018-09-26T18:20:42.366Z,17.74
2018-09-26T18:23:16.002Z,17.70
2018-09-26T18:25:49.612Z,17.63
2018-09-26T18:28:23.382Z,17.60
2018-09-26T18:30:57.624Z,17.64
2018-09-26T18:33:31.288Z,17.61
2018-09-26T18:36:04.973Z,17.57
2018-09-26T18:38:38.788Z,17.56
2018-09-26T18:41:12.454Z,17.65
2018-09-26T18:43:46.178Z,17.69
2018-09-26T18:46:19.885Z,17.63
2018-09-26T18:48:53.620Z,17.68
2018-09-26T18:51:27.291Z,17.70
2018-09-26T18:54:01.036Z,17.59
2018-09-26T18:56:35.267Z,17.59
2018-09-26T18:59:09.713Z,17.58
2018-09-26T19:01:43.441Z,17.62
2018-09-26T19:04:17.142Z,17.57
2018-09-26T19:06:50.955Z,17.57
2018-09-26T19:09:24.605Z,17.55
2018-09-26T19:11:58.333Z,17.54
2018-09-26T19:14:32.120Z,17.53
2018-09-26T19:17:06.081Z,17.57
2018-09-26T19:19:39.766Z,17.54
2018-09-26T19:22:13.412Z,17.60
2018-09-26T19:24:47.145Z,17.53
2018-09-26T19:27:20.807Z,17.57
2018-09-26T19:29:54.601Z,17.58
2018-09-26T19:32:28.275Z,17.55
2018-09-26T19:35:01.927Z,17.49
2018-09-26T19:37:35.534Z,17.56
2018-09-26T19:40:09.523Z,17.59
2018-09-26T19:42:43.254Z,17.61
2018-09-26T19:45:16.885Z,17.67
2018-09-26T19:47:50.581Z,17.63
2018-09-26T19:50:24.335Z,17.61
2018-09-26T19:52:57.993Z,17.62
2018-09-26T19:55:31.845Z,17.60
2018-09-26T19:58:05.476Z,17.54
2018-09-26T20:00:39.110Z,17.58
2018-09-26T20:03:12.677Z,17.58
2018-09-26T20:05:46.311Z,17.64
2018-09-26T20:08:20.072Z,17.69
2018-09-26T20:10:55.558Z,17.65
2018-09-26T20:13:29.216Z,17.62
2018-09-26T20:16:02.825Z,17.55
2018-09-26T20:18:36.729Z,17.50
2018-09-26T20:21:10.573Z,17.55
2018-09-26T20:23:44.133Z,17.52
2018-09-26T20:26:17.814Z,17.59
2018-09-26T20:28:51.408Z,17.50
2018-09-26T20:31:24.929Z,17.55
2018-09-26T20:33:58.545Z,17.62
2018-09-26T20:36:32.291Z,17.61
2018-09-26T20:39:08.561Z,17.62
2018-09-26T20:41:47.132Z,17.67
2018-09-26T20:44:20.733Z,17.67
2018-09-26T20:46:54.321Z,17.53
2018-09-26T20:49:28.998Z,17.71
2018-09-26T20:52:02.622Z,17.63
2018-09-26T20:54:36.584Z,17.75
2018-09-26T20:57:10.152Z,17.76
2018-09-26T20:59:43.801Z,17.71
2018-09-26T21:02:17.346Z,17.78
2018-09-26T21:04:50.958Z,17.74
2018-09-26T21:07:24.538Z,17.77
2018-09-26T21:09:58.269Z,17.74
2018-09-26T21:14:00.992Z,17.74
2018-09-26T21:16:34.593Z,17.73
2018-09-26T21:19:08.378Z,17.73
2018-09-26T21:21:41.984Z,17.73
2018-09-26T21:24:15.578Z,17.69
2018-09-26T21:26:49.247Z,17.63
2018-09-26T21:29:22.871Z,17.73
2018-09-26T21:31:56.602Z,17.71
2018-09-26T21:34:30.741Z,17.71
2018-09-26T21:37:04.585Z,17.71
2018-09-26T21:39:38.275Z,17.74
2018-09-26T21:42:12.108Z,17.68
2018-09-26T21:44:46.038Z,17.69
2018-09-26T21:47:19.747Z,17.71
2018-09-26T21:49:53.363Z,17.77
2018-09-26T21:52:27.021Z,17.81
2018-09-26T21:55:00.641Z,17.73
2018-09-26T21:57:34.290Z,17.77
2018-09-26T22:00:08.391Z,17.76
2018-09-26T22:02:42.000Z,17.80
2018-09-26T22:05:16.038Z,17.83
2018-09-26T22:07:49.851Z,17.87
2018-09-26T22:10:23.545Z,17.95
2018-09-26T22:12:57.202Z,17.93
2018-09-26T22:15:31.022Z,17.89
2018-09-26T22:18:04.591Z,17.88
2018-09-26T22:20:38.537Z,17.81
2018-09-26T22:23:12.126Z,17.77
2018-09-26T22:25:45.856Z,17.84
2018-09-26T22:28:19.474Z,17.77
2018-09-26T22:30:53.168Z,17.89
2018-09-26T22:33:26.779Z,17.91
2018-09-26T22:36:00.405Z,17.88
2018-09-26T22:38:34.020Z,17.82
2018-09-26T22:41:07.649Z,17.82
2018-09-26T22:43:41.330Z,17.81
2018-09-26T22:46:15.060Z,17.83
2018-09-26T22:48:48.682Z,17.86
2018-09-26T22:51:23.560Z,17.84
2018-09-26T22:53:57.152Z,17.87
2018-09-26T22:56:30.781Z,17.81
2018-09-26T22:59:04.355Z,17.81
2018-09-26T23:01:37.958Z,17.85
2018-09-26T23:04:11.652Z,17.86
2018-09-26T23:06:45.269Z,17.94
2018-09-26T23:09:18.844Z,17.82
2018-09-26T23:11:52.422Z,17.79
2018-09-26T23:14:26.021Z,17.91
2018-09-26T23:16:59.789Z,17.96
2018-09-26T23:19:33.352Z,17.94
2018-09-26T23:22:07.020Z,17.92
2018-09-26T23:24:40.750Z,17.98
2018-09-26T23:27:14.354Z,17.86
2018-09-26T23:29:47.887Z,17.97
2018-09-26T23:32:21.501Z,17.92
2018-09-26T23:34:55.098Z,17.95
2018-09-26T23:37:28.732Z,17.93
2018-09-26T23:40:02.369Z,17.86
2018-09-26T23:42:35.988Z,17.95
2018-09-26T23:45:09.581Z,17.79
2018-09-26T23:47:43.152Z,17.84
2018-09-26T23:50:16.802Z,17.86
2018-09-26T23:52:50.399Z,17.83
2018-09-26T23:55:23.949Z,17.82
2018-09-26T23:57:57.663Z,17.86
